Time;durP1;ratioP1;P1;durP2;ratioP2;P2;SDS_P1;SDS_P2;PMS_P1;PMS_P2;Temp;Humidity;BMP_temperature;BMP_pressure;BME280_temperature;BME280_humidity;BME280_pressure;Samples;Min_cycle;Max_cycle;Signal;HPM_P1;HPM_P2
2023/10/28 00:00:30;;;;;;;36.20;21.80;;;10.70;91.90;;;;;;5016669;28;20053;-94
2023/10/28 00:02:56;;;;;;;36.08;23.08;;;10.60;91.90;;;;;;5014479;28;20073;-91
2023/10/28 00:05:24;;;;;;;45.13;24.45;;;10.70;91.90;;;;;;5014110;28;20037;-92
2023/10/28 00:07:50;;;;;;;33.90;21.58;;;10.60;91.90;;;;;;5015474;28;20050;-91
2023/10/28 00:10:16;;;;;;;41.58;24.90;;;10.60;91.80;;;;;;5017570;28;20058;-91
2023/10/28 00:12:41;;;;;;;33.90;22.30;;;10.60;91.80;;;;;;5014362;28;20084;-92
2023/10/28 00:15:08;;;;;;;37.50;24.38;;;10.50;91.70;;;;;;5013974;28;20125;-92
2023/10/28 00:17:33;;;;;;;45.83;26.30;;;10.50;91.70;;;;;;4997487;28;20030;-91
2023/10/28 00:20:04;;;;;;;42.58;24.45;;;10.50;91.70;;;;;;4999603;28;20080;-93
2023/10/28 00:22:31;;;;;;;44.05;23.83;;;10.40;91.70;;;;;;5017688;28;20422;-92
2023/10/28 00:24:58;;;;;;;45.78;25.90;;;10.60;91.80;;;;;;4996845;28;20046;-92
2023/10/28 00:27:24;;;;;;;46.47;25.60;;;10.40;92.00;;;;;;4997202;28;20034;-92
2023/10/28 00:29:52;;;;;;;46.22;24.77;;;10.40;91.90;;;;;;4996402;28;20026;-93
2023/10/28 00:32:22;;;;;;;45.25;25.52;;;10.40;91.90;;;;;;5013664;28;20081;-92
2023/10/28 00:34:48;;;;;;;41.90;24.25;;;10.40;91.90;;;;;;5013319;28;20054;-93
2023/10/28 00:37:14;;;;;;;43.83;23.58;;;10.40;91.90;;;;;;5013566;28;20498;-91
2023/10/28 00:39:43;;;;;;;43.42;24.50;;;10.30;91.90;;;;;;4996972;28;20045;-92
2023/10/28 00:42:13;;;;;;;36.70;21.73;;;10.40;92.00;;;;;;4997048;28;20049;-92
2023/10/28 00:44:39;;;;;;;37.33;21.33;;;10.30;92.00;;;;;;5012850;28;20080;-92
2023/10/28 00:47:06;;;;;;;37.58;22.63;;;10.30;92.00;;;;;;5013473;28;20037;-92
2023/10/28 00:49:31;;;;;;;37.35;22.00;;;10.30;92.00;;;;;;5013269;28;20077;-92
2023/10/28 00:51:58;;;;;;;34.40;20.77;;;10.30;92.00;;;;;;5013692;28;20061;-92
2023/10/28 00:54:25;;;;;;;32.85;20.67;;;10.30;91.90;;;;;;4995027;28;20038;-93
2023/10/28 00:56:52;;;;;;;35.58;20.80;;;10.30;91.90;;;;;;4998655;28;20046;-92
2023/10/28 00:59:17;;;;;;;37.20;20.70;;;10.30;92.00;;;;;;5026385;28;20042;-92
2023/10/28 01:01:43;;;;;;;43.30;21.50;;;10.30;92.00;;;;;;5035860;28;20034;-92
2023/10/28 01:04:08;;;;;;;39.00;21.85;;;10.30;91.90;;;;;;5027290;28;20041;-92
2023/10/28 01:06:34;;;;;;;30.90;19.92;;;10.20;91.90;;;;;;5013163;28;20510;-92
2023/10/28 01:09:00;;;;;;;35.85;21.02;;;10.20;91.90;;;;;;5012995;28;20038;-93
2023/10/28 01:11:25;;;;;;;32.22;19.90;;;10.20;91.90;;;;;;4996398;28;20093;-91
2023/10/28 01:13:51;;;;;;;33.88;19.38;;;10.20;91.90;;;;;;5012613;28;20046;-92
2023/10/28 01:16:16;;;;;;;34.45;19.80;;;10.20;91.90;;;;;;5013888;28;20034;-92
2023/10/28 01:18:43;;;;;;;32.15;19.73;;;10.40;91.90;;;;;;4997623;28;20052;-92
2023/10/28 01:21:10;;;;;;;34.10;18.85;;;10.20;91.90;;;;;;5022055;28;20399;-93
2023/10/28 01:23:36;;;;;;;36.88;19.80;;;9.80;91.80;;;;;;5029050;28;20013;-93
2023/10/28 01:26:02;;;;;;;30.80;18.80;;;10.10;91.90;;;;;;5035715;28;20044;-92
2023/10/28 01:28:29;;;;;;;31.17;18.50;;;10.10;91.80;;;;;;5036601;28;20042;-94
2023/10/28 01:30:56;;;;;;;28.27;16.75;;;10.10;91.80;;;;;;5020877;28;20058;-92
2023/10/28 01:33:22;;;;;;;29.27;17.67;;;10.10;91.80;;;;;;4997726;28;20130;-93
2023/10/28 01:35:47;;;;;;;30.77;18.55;;;10.10;91.80;;;;;;5013443;28;20042;-92
2023/10/28 01:38:13;;;;;;;31.95;16.90;;;10.10;91.80;;;;;;4996535;28;20033;-92
2023/10/28 01:40:39;;;;;;;30.50;17.60;;;10.10;91.80;;;;;;4996740;28;20038;-92
2023/10/28 01:43:05;;;;;;;35.08;19.52;;;10.10;91.80;;;;;;5012443;28;20050;-93
2023/10/28 01:45:31;;;;;;;29.83;16.95;;;10.00;91.80;;;;;;5013050;28;20041;-94
2023/10/28 01:47:56;;;;;;;27.88;17.83;;;10.00;91.80;;;;;;5013171;28;20038;-93
2023/10/28 01:50:22;;;;;;;32.30;18.80;;;10.00;91.70;;;;;;5013072;28;20395;-93
2023/10/28 01:52:48;;;;;;;25.65;16.25;;;10.20;91.90;;;;;;5002080;28;20034;-92
2023/10/28 01:55:14;;;;;;;26.38;16.33;;;10.00;91.70;;;;;;4998151;28;20176;-94
2023/10/28 01:57:40;;;;;;;27.90;16.33;;;10.00;91.80;;;;;;4995809;28;20034;-93
2023/10/28 02:00:12;;;;;;;29.77;17.77;;;10.10;91.80;;;;;;5013182;28;20049;-92
2023/10/28 02:02:39;;;;;;;33.35;18.15;;;10.00;91.80;;;;;;5018453;28;20057;-92
2023/10/28 02:05:05;;;;;;;27.80;16.50;;;10.40;91.80;;;;;;4996822;28;20541;-93
2023/10/28 02:07:33;;;;;;;26.88;17.63;;;9.90;91.70;;;;;;5013335;28;20038;-93
2023/10/28 02:09:59;;;;;;;29.77;16.30;;;9.90;91.70;;;;;;5012518;28;20564;-93
2023/10/28 02:12:25;;;;;;;26.15;15.88;;;9.90;91.60;;;;;;4997022;28;20081;-93
2023/10/28 02:14:51;;;;;;;24.50;15.27;;;9.90;91.60;;;;;;4998930;28;20533;-94
2023/10/28 02:17:17;;;;;;;30.40;16.60;;;9.90;91.60;;;;;;4999344;28;20038;-94
2023/10/28 02:19:44;;;;;;;27.20;16.35;;;9.80;91.60;;;;;;4999440;28;20101;-92
2023/10/28 02:22:10;;;;;;;27.58;16.00;;;9.80;91.60;;;;;;5015810;28;20045;-93
2023/10/28 02:24:37;;;;;;;25.73;16.38;;;9.80;91.60;;;;;;5015673;28;20487;-93
2023/10/28 02:27:02;;;;;;;26.63;15.20;;;9.80;91.60;;;;;;5015487;28;20540;-93
2023/10/28 02:29:29;;;;;;;28.58;15.90;;;9.80;91.60;;;;;;4999801;28;20037;-94
2023/10/28 02:31:54;;;;;;;25.23;15.75;;;9.80;91.60;;;;;;5015496;28;20517;-94
2023/10/28 02:34:20;;;;;;;31.77;16.08;;;9.70;91.60;;;;;;4999661;28;20037;-94
2023/10/28 02:36:46;;;;;;;27.35;15.35;;;9.70;91.60;;;;;;5015597;28;20042;-94
2023/10/28 02:39:12;;;;;;;24.38;15.15;;;9.70;91.60;;;;;;4999097;28;20100;-93
2023/10/28 02:41:41;;;;;;;26.50;15.13;;;9.70;91.60;;;;;;5015538;28;20046;-92
2023/10/28 02:44:06;;;;;;;26.58;15.77;;;9.70;91.60;;;;;;4999499;28;20046;-94
2023/10/28 02:46:32;;;;;;;24.42;14.90;;;9.70;91.60;;;;;;4999063;28;20034;-94
2023/10/28 02:48:58;;;;;;;25.50;15.70;;;9.80;91.70;;;;;;5015689;28;20042;-94
2023/10/28 02:51:23;;;;;;;26.75;15.70;;;9.60;91.60;;;;;;5015315;28;20045;-94
2023/10/28 02:53:49;;;;;;;24.55;15.48;;;9.60;91.60;;;;;;5014982;28;20049;-93
2023/10/28 02:56:15;;;;;;;22.98;15.05;;;9.60;91.60;;;;;;5014540;28;20048;-94
2023/10/28 02:58:40;;;;;;;23.75;15.77;;;9.60;91.60;;;;;;4999218;28;20053;-94
2023/10/28 03:01:11;;;;;;;23.52;13.98;;;10.10;91.80;;;;;;5014830;28;20042;-94
2023/10/28 03:03:36;;;;;;;22.17;15.27;;;9.60;91.70;;;;;;5015366;28;20034;-94
2023/10/28 03:06:03;;;;;;;22.63;14.40;;;9.50;91.70;;;;;;4998347;28;20121;-94
2023/10/28 03:08:28;;;;;;;22.48;14.63;;;9.60;91.70;;;;;;4998625;28;20525;-94
2023/10/28 03:10:54;;;;;;;24.75;14.20;;;9.60;91.70;;;;;;4997922;28;20089;-93
2023/10/28 03:13:20;;;;;;;23.23;14.18;;;9.60;91.70;;;;;;5016366;28;20076;-92
2023/10/28 03:15:46;;;;;;;27.70;15.95;;;9.50;91.70;;;;;;5005229;28;20038;-93
2023/10/28 03:18:13;;;;;;;24.17;14.80;;;9.50;91.70;;;;;;5019343;28;20093;-92
2023/10/28 03:20:38;;;;;;;23.70;15.35;;;9.50;91.80;;;;;;5014508;28;20552;-92
2023/10/28 03:23:04;;;;;;;24.38;14.63;;;9.60;91.80;;;;;;4998758;28;20034;-93
2023/10/28 03:25:31;;;;;;;22.20;14.35;;;9.60;91.80;;;;;;5014858;28;20034;-93
2023/10/28 03:27:58;;;;;;;21.10;13.23;;;9.60;91.90;;;;;;5014197;28;20091;-93
2023/10/28 03:30:23;;;;;;;22.05;13.50;;;9.60;91.90;;;;;;4998776;28;20041;-93
2023/10/28 03:32:49;;;;;;;22.52;13.85;;;9.60;91.90;;;;;;4998568;28;20053;-93
2023/10/28 03:35:15;;;;;;;19.65;13.43;;;9.60;92.00;;;;;;5016136;28;20045;-93
2023/10/28 03:37:43;;;;;;;21.75;13.40;;;9.60;92.00;;;;;;5016849;28;20045;-94
2023/10/28 03:40:09;;;;;;;23.60;15.27;;;9.60;92.00;;;;;;5016477;28;20050;-93
2023/10/28 03:42:36;;;;;;;19.65;13.70;;;9.60;92.00;;;;;;4999741;28;20038;-93
2023/10/28 03:45:02;;;;;;;21.52;14.43;;;9.70;92.10;;;;;;5017200;28;20042;-91
2023/10/28 03:47:29;;;;;;;26.08;14.52;;;9.70;92.10;;;;;;5022444;28;20101;-92
2023/10/28 03:49:55;;;;;;;23.92;13.48;;;10.00;92.20;;;;;;5022535;28;20525;-93
2023/10/28 03:52:20;;;;;;;16.55;12.48;;;9.70;92.10;;;;;;5026891;28;20056;-92
2023/10/28 03:54:46;;;;;;;27.13;15.50;;;9.70;92.20;;;;;;5031168;28;20129;-92
2023/10/28 03:57:11;;;;;;;18.55;13.75;;;9.70;92.20;;;;;;5020165;28;20098;-93
2023/10/28 03:59:37;;;;;;;24.33;14.02;;;9.80;92.20;;;;;;5021206;28;20036;-93
2023/10/28 04:02:03;;;;;;;24.13;14.65;;;9.80;92.20;;;;;;5026242;28;20057;-93
2023/10/28 04:04:29;;;;;;;25.55;15.80;;;9.80;92.30;;;;;;5002515;28;20068;-93
2023/10/28 04:06:55;;;;;;;20.95;13.95;;;9.80;92.30;;;;;;5017917;28;20049;-94
2023/10/28 04:09:21;;;;;;;29.70;15.07;;;9.90;92.30;;;;;;5016453;28;20038;-93
2023/10/28 04:11:47;;;;;;;24.48;14.52;;;9.90;92.30;;;;;;5016371;28;20054;-94
2023/10/28 04:14:13;;;;;;;21.30;15.07;;;9.90;92.30;;;;;;5016729;28;20396;-94
2023/10/28 04:16:39;;;;;;;21.00;14.18;;;9.90;92.30;;;;;;5016281;28;20111;-92
2023/10/28 04:19:05;;;;;;;30.52;15.85;;;9.90;92.40;;;;;;5015539;28;20121;-93
2023/10/28 04:21:30;;;;;;;37.15;15.73;;;10.00;92.40;;;;;;5014881;28;20076;-94
2023/10/28 04:23:56;;;;;;;22.90;15.15;;;10.00;92.40;;;;;;4998950;28;20500;-93
2023/10/28 04:26:22;;;;;;;25.52;15.38;;;10.00;92.40;;;;;;5014679;28;20490;-93
2023/10/28 04:28:48;;;;;;;27.13;15.52;;;10.00;92.40;;;;;;5014937;28;20037;-93
2023/10/28 04:31:15;;;;;;;28.85;16.27;;;10.10;92.50;;;;;;5014584;28;20510;-93
2023/10/28 04:33:41;;;;;;;27.55;16.90;;;10.10;92.50;;;;;;4998145;28;20038;-93
2023/10/28 04:36:09;;;;;;;27.23;15.68;;;10.40;92.50;;;;;;5015243;28;20069;-93
2023/10/28 04:38:37;;;;;;;30.00;15.77;;;10.10;92.50;;;;;;5015320;28;20120;-93
2023/10/28 04:41:02;;;;;;;26.67;15.95;;;10.10;92.50;;;;;;5014350;28;20041;-93
2023/10/28 04:43:29;;;;;;;31.60;17.08;;;10.10;92.50;;;;;;5015571;28;20053;-92
2023/10/28 04:45:54;;;;;;;31.00;16.65;;;10.10;92.50;;;;;;4999529;28;20041;-93
2023/10/28 04:48:21;;;;;;;27.67;15.20;;;10.50;92.60;;;;;;5014141;28;20065;-93
2023/10/28 04:50:50;;;;;;;30.33;16.90;;;10.20;92.50;;;;;;5014599;28;20091;-93
2023/10/28 04:53:15;;;;;;;26.23;16.50;;;10.70;92.70;;;;;;5013135;28;20038;-93
2023/10/28 04:55:43;;;;;;;37.65;17.92;;;10.30;92.60;;;;;;5012800;28;20034;-94
2023/10/28 04:58:10;;;;;;;29.17;17.55;;;10.80;92.70;;;;;;5013035;28;20407;-94
2023/10/28 05:00:36;;;;;;;32.17;18.48;;;10.30;92.60;;;;;;5012434;28;20099;-93
2023/10/28 05:03:02;;;;;;;25.98;16.55;;;10.30;92.60;;;;;;5012931;28;20105;-93
2023/10/28 05:05:28;;;;;;;29.48;16.55;;;10.30;92.60;;;;;;4996116;28;20038;-94
2023/10/28 05:07:53;;;;;;;26.08;16.33;;;10.30;92.60;;;;;;5012825;28;20073;-94
2023/10/28 05:10:19;;;;;;;30.92;16.70;;;10.30;92.60;;;;;;4996285;28;20410;-93
2023/10/28 05:12:45;;;;;;;29.50;16.88;;;10.30;92.60;;;;;;5013145;28;20046;-93
2023/10/28 05:15:11;;;;;;;23.42;15.45;;;10.40;92.60;;;;;;5012899;28;20117;-94
2023/10/28 05:17:37;;;;;;;28.23;16.30;;;10.40;92.60;;;;;;5012825;28;20040;-94
2023/10/28 05:20:06;;;;;;;26.45;15.85;;;10.40;92.60;;;;;;4995812;28;20502;-93
2023/10/28 05:22:36;;;;;;;27.65;17.08;;;10.40;92.70;;;;;;4996133;28;20038;-94
2023/10/28 05:25:07;;;;;;;24.10;15.23;;;10.40;92.70;;;;;;4996066;28;20042;-93
2023/10/28 05:27:33;;;;;;;27.50;15.77;;;10.40;92.70;;;;;;4996220;28;20041;-93
2023/10/28 05:29:59;;;;;;;26.52;15.50;;;10.40;92.70;;;;;;5012524;28;20041;-93
2023/10/28 05:32:29;;;;;;;25.15;15.18;;;10.40;92.70;;;;;;4996070;28;20054;-94
2023/10/28 05:34:56;;;;;;;23.10;14.70;;;10.50;92.70;;;;;;5012263;28;20042;-94
2023/10/28 05:37:22;;;;;;;24.50;14.43;;;10.50;92.70;;;;;;5013437;28;20046;-92
2023/10/28 05:39:47;;;;;;;29.52;14.60;;;10.50;92.70;;;;;;4999376;28;20030;-92
2023/10/28 05:42:16;;;;;;;26.40;14.05;;;10.50;92.70;;;;;;4996183;28;20041;-93
2023/10/28 05:44:42;;;;;;;22.67;13.57;;;10.50;92.70;;;;;;4995942;28;20061;-93
2023/10/28 05:47:08;;;;;;;25.30;14.25;;;10.60;92.70;;;;;;4997227;28;20041;-92
2023/10/28 05:49:34;;;;;;;21.15;13.80;;;10.60;92.70;;;;;;4999172;28;20049;-93
2023/10/28 05:52:00;;;;;;;19.40;13.15;;;10.60;92.70;;;;;;4999938;28;20041;-94
2023/10/28 05:54:25;;;;;;;24.00;12.77;;;10.60;92.60;;;;;;5000037;28;20042;-94
2023/10/28 05:56:51;;;;;;;17.63;12.38;;;10.60;92.60;;;;;;5018188;28;20380;-93
2023/10/28 05:59:16;;;;;;;20.05;12.77;;;10.60;92.60;;;;;;5000365;28;20042;-93
2023/10/28 06:01:42;;;;;;;22.60;12.52;;;10.60;92.60;;;;;;5015755;28;20042;-93
2023/10/28 06:04:08;;;;;;;20.45;11.65;;;10.60;92.60;;;;;;5015955;28;20184;-93
2023/10/28 06:06:33;;;;;;;19.92;12.30;;;10.50;92.50;;;;;;5015724;28;20042;-92
2023/10/28 06:09:00;;;;;;;18.38;11.77;;;10.60;92.50;;;;;;5015968;28;20045;-90
2023/10/28 06:11:26;;;;;;;18.95;11.20;;;10.60;92.50;;;;;;4999814;28;20053;-92
2023/10/28 06:13:52;;;;;;;15.25;10.70;;;10.60;92.70;;;;;;5032338;28;20486;-92
2023/10/28 06:16:21;;;;;;;21.90;12.25;;;10.50;92.40;;;;;;4999681;28;20041;-92
2023/10/28 06:18:49;;;;;;;18.88;11.02;;;10.50;92.40;;;;;;5016849;28;20137;-91
2023/10/28 06:21:15;;;;;;;19.00;11.05;;;10.50;92.40;;;;;;5019792;28;20034;-90
2023/10/28 06:23:41;;;;;;;19.75;10.68;;;10.50;92.40;;;;;;5018183;28;20034;-92
2023/10/28 06:26:07;;;;;;;19.63;11.05;;;10.50;92.40;;;;;;5024400;28;20041;-91
2023/10/28 06:28:34;;;;;;;18.08;10.82;;;10.50;92.40;;;;;;5002920;28;20121;-92
2023/10/28 06:31:00;;;;;;;23.17;10.57;;;10.50;92.40;;;;;;4999234;28;20117;-92
2023/10/28 06:33:26;;;;;;;13.05;9.80;;;10.50;92.40;;;;;;5015520;28;20042;-94
2023/10/28 06:35:52;;;;;;;14.02;10.00;;;10.50;92.30;;;;;;5015890;28;20153;-93
2023/10/28 06:38:18;;;;;;;13.55;9.90;;;10.50;92.30;;;;;;5015440;28;20046;-93
2023/10/28 06:40:47;;;;;;;15.63;9.13;;;10.50;92.30;;;;;;5014604;28;20479;-93
2023/10/28 06:43:15;;;;;;;17.13;9.50;;;10.50;92.30;;;;;;4998790;28;20038;-94
2023/10/28 06:45:41;;;;;;;15.27;9.57;;;10.50;92.30;;;;;;5015292;28;20038;-93
2023/10/28 06:48:07;;;;;;;15.73;9.40;;;10.50;92.30;;;;;;5014858;28;20545;-93
2023/10/28 06:50:33;;;;;;;11.68;8.73;;;10.50;92.30;;;;;;5015054;28;20065;-94
2023/10/28 06:53:02;;;;;;;12.90;9.05;;;10.40;92.20;;;;;;4983747;28;20038;-94
2023/10/28 06:55:27;;;;;;;16.75;8.88;;;10.40;92.20;;;;;;4988243;28;20433;-94
2023/10/28 06:57:54;;;;;;;11.70;8.10;;;11.00;92.40;;;;;;4998944;28;20040;-92
2023/10/28 07:00:23;;;;;;;16.02;8.60;;;10.40;92.20;;;;;;5009647;28;20030;-96
2023/10/28 07:02:49;;;;;;;13.27;8.75;;;10.40;92.20;;;;;;4994044;28;20034;-94
2023/10/28 07:05:15;;;;;;;11.60;8.75;;;10.50;92.20;;;;;;4995044;28;20450;-94
2023/10/28 07:07:41;;;;;;;12.20;8.10;;;10.70;92.20;;;;;;4995162;28;20038;-93
2023/10/28 07:10:07;;;;;;;11.30;7.97;;;10.40;92.20;;;;;;4978354;28;20054;-91
2023/10/28 07:12:33;;;;;;;14.63;8.38;;;10.40;92.20;;;;;;5003291;28;20085;-93
2023/10/28 07:14:58;;;;;;;14.32;8.27;;;10.40;92.20;;;;;;4997832;28;20041;-93
2023/10/28 07:17:24;;;;;;;13.05;8.68;;;10.40;92.20;;;;;;4999327;28;20039;-93
2023/10/28 07:19:52;;;;;;;13.73;8.07;;;11.10;92.40;;;;;;5008488;28;20037;-93
2023/10/28 07:22:21;;;;;;;12.65;8.23;;;10.90;92.30;;;;;;4997803;28;20174;-93
2023/10/28 07:24:47;;;;;;;9.80;7.45;;;10.40;92.20;;;;;;5013992;28;20509;-94
2023/10/28 07:27:13;;;;;;;10.55;7.22;;;10.40;92.20;;;;;;5013767;28;20069;-92
2023/10/28 07:29:38;;;;;;;9.00;7.25;;;10.40;92.20;;;;;;5014807;28;20038;-94
2023/10/28 07:32:06;;;;;;;12.90;6.97;;;10.40;92.20;;;;;;5022276;28;20052;-93
2023/10/28 07:34:31;;;;;;;9.75;6.57;;;10.40;92.20;;;;;;5021257;28;20041;-94
2023/10/28 07:37:01;;;;;;;13.63;7.32;;;11.00;92.40;;;;;;5015812;28;20115;-93
2023/10/28 07:39:26;;;;;;;11.30;6.82;;;10.50;92.30;;;;;;5016086;28;20395;-94
2023/10/28 07:41:53;;;;;;;9.68;7.72;;;10.50;92.30;;;;;;5018385;28;20130;-92
2023/10/28 07:44:19;;;;;;;10.13;7.13;;;10.50;92.30;;;;;;5014665;28;20521;-91
2023/10/28 07:46:46;;;;;;;12.27;7.65;;;10.50;92.30;;;;;;5013706;28;20037;-91
2023/10/28 07:49:12;;;;;;;11.13;8.00;;;10.50;92.30;;;;;;5014752;28;20045;-91
2023/10/28 07:51:38;;;;;;;10.23;7.50;;;10.50;92.30;;;;;;4977932;28;20521;-91
2023/10/28 07:54:04;;;;;;;10.77;7.50;;;10.60;92.30;;;;;;4992066;28;20042;-91
2023/10/28 07:56:29;;;;;;;11.07;7.50;;;10.60;92.30;;;;;;4997409;28;20033;-93
2023/10/28 07:58:59;;;;;;;11.63;7.25;;;10.60;92.30;;;;;;5014822;28;20042;-93
2023/10/28 08:01:27;;;;;;;10.60;6.68;;;10.50;92.20;;;;;;5013570;28;20038;-93
2023/10/28 08:03:53;;;;;;;9.80;6.43;;;10.60;92.20;;;;;;5014833;28;20467;-93
2023/10/28 08:06:19;;;;;;;10.48;6.43;;;10.60;92.20;;;;;;5013555;28;20137;-95
2023/10/28 08:08:49;;;;;;;11.73;7.13;;;10.60;92.20;;;;;;5013668;28;20125;-94
2023/10/28 08:11:16;;;;;;;10.43;6.32;;;10.60;92.20;;;;;;5016659;28;20057;-91
2023/10/28 08:13:43;;;;;;;9.68;6.38;;;10.60;92.20;;;;;;5016296;28;20054;-92
2023/10/28 08:16:12;;;;;;;11.20;6.43;;;10.60;92.20;;;;;;5012983;28;20116;-93
2023/10/28 08:18:38;;;;;;;10.75;6.43;;;10.60;92.30;;;;;;5029395;28;20449;-93
2023/10/28 08:21:04;;;;;;;10.23;6.70;;;10.60;92.30;;;;;;5013004;28;20506;-94
2023/10/28 08:23:30;;;;;;;8.90;6.25;;;10.60;92.20;;;;;;5012870;28;20073;-95
2023/10/28 08:25:57;;;;;;;13.15;6.68;;;10.60;92.30;;;;;;5013078;28;20057;-94
2023/10/28 08:28:22;;;;;;;10.23;6.80;;;10.60;92.30;;;;;;5012895;28;20042;-95
2023/10/28 08:30:48;;;;;;;9.43;5.35;;;10.70;92.30;;;;;;5014513;28;20052;-94
2023/10/28 08:33:14;;;;;;;11.25;5.82;;;10.70;92.30;;;;;;5013005;28;20045;-95
2023/10/28 08:35:39;;;;;;;8.88;5.85;;;10.70;92.30;;;;;;5012281;28;20049;-94
2023/10/28 08:38:05;;;;;;;10.95;5.75;;;10.70;92.30;;;;;;5013111;28;20065;-94
2023/10/28 08:40:34;;;;;;;7.80;5.47;;;10.70;92.40;;;;;;5014589;28;20045;-94
2023/10/28 08:43:00;;;;;;;7.90;5.38;;;10.80;92.40;;;;;;5012432;28;20042;-94
2023/10/28 08:45:27;;;;;;;8.90;5.28;;;10.70;92.40;;;;;;5013012;28;20050;-94
2023/10/28 08:47:53;;;;;;;13.73;6.63;;;10.80;92.40;;;;;;5014163;28;20036;-93
2023/10/28 08:50:23;;;;;;;7.20;5.97;;;10.80;92.40;;;;;;5014996;28;20050;-95
2023/10/28 08:52:51;;;;;;;8.85;5.90;;;10.90;92.50;;;;;;5016393;28;20049;-95
2023/10/28 08:55:16;;;;;;;8.35;5.45;;;10.90;92.50;;;;;;5016513;28;20064;-95
2023/10/28 08:57:45;;;;;;;9.77;5.90;;;10.90;92.70;;;;;;5018827;28;20471;-95
2023/10/28 09:00:14;;;;;;;8.60;5.45;;;10.90;92.50;;;;;;5013693;28;20041;-94
2023/10/28 09:02:48;;;;;;;9.80;5.57;;;11.00;92.50;;;;;;4996474;28;20038;-94
2023/10/28 09:05:15;;;;;;;9.95;5.57;;;11.00;92.60;;;;;;5012899;28;20034;-94
2023/10/28 09:07:43;;;;;;;8.52;5.18;;;11.10;92.70;;;;;;5013189;28;20470;-95
2023/10/28 09:10:10;;;;;;;9.05;5.18;;;11.20;92.70;;;;;;5012811;28;20125;-95
2023/10/28 09:12:36;;;;;;;11.90;4.90;;;11.20;92.70;;;;;;5012904;28;20111;-95
2023/10/28 09:15:03;;;;;;;10.30;5.20;;;11.20;92.60;;;;;;5012900;28;20057;-94
2023/10/28 09:17:29;;;;;;;10.27;4.82;;;11.30;92.70;;;;;;5014407;28;20073;-94
2023/10/28 09:19:56;;;;;;;7.45;4.57;;;11.40;92.70;;;;;;5015855;28;20052;-91
2023/10/28 09:22:23;;;;;;;9.63;5.10;;;11.40;92.70;;;;;;5018891;28;20077;-95
2023/10/28 09:24:52;;;;;;;8.50;4.53;;;11.40;92.70;;;;;;5012553;28;20053;-93
2023/10/28 09:27:18;;;;;;;8.73;4.30;;;11.40;92.60;;;;;;5013834;28;20096;-95
2023/10/28 09:29:44;;;;;;;8.48;4.80;;;11.50;92.50;;;;;;5000548;28;20044;-91
2023/10/28 09:32:10;;;;;;;7.75;4.22;;;11.50;92.50;;;;;;5000811;28;20102;-93
2023/10/28 09:34:38;;;;;;;8.70;4.25;;;11.60;92.40;;;;;;5012398;28;20073;-94
2023/10/28 09:37:04;;;;;;;8.23;4.55;;;11.60;92.30;;;;;;5012613;28;20053;-94
2023/10/28 09:39:33;;;;;;;7.30;4.03;;;11.60;92.30;;;;;;5012771;28;20042;-93
2023/10/28 09:41:59;;;;;;;8.75;3.88;;;11.70;92.30;;;;;;5015062;28;20121;-92
2023/10/28 09:44:26;;;;;;;10.40;5.25;;;11.70;92.20;;;;;;5014110;28;20073;-94
2023/10/28 09:46:59;;;;;;;6.80;3.83;;;11.70;92.20;;;;;;5013717;28;20108;-93
2023/10/28 09:49:29;;;;;;;11.23;4.50;;;11.80;92.20;;;;;;5012648;28;20042;-92
2023/10/28 09:52:06;;;;;;;9.82;4.20;;;11.80;92.10;;;;;;5012541;28;20045;-94
2023/10/28 09:54:35;;;;;;;10.02;3.67;;;11.80;92.00;;;;;;5012344;28;20042;-92
2023/10/28 09:57:01;;;;;;;7.70;3.80;;;11.80;91.90;;;;;;5012449;28;20058;-94
2023/10/28 09:59:34;;;;;;;7.78;3.90;;;11.90;91.80;;;;;;5012212;28;20121;-93
2023/10/28 10:02:01;;;;;;;7.85;3.78;;;11.90;91.80;;;;;;5011735;28;20046;-94
2023/10/28 10:04:39;;;;;;;9.55;3.78;;;11.90;91.70;;;;;;4992883;28;20054;-93
2023/10/28 10:07:05;;;;;;;7.13;3.72;;;11.90;91.60;;;;;;4994979;28;20070;-94
2023/10/28 10:09:47;;;;;;;11.45;4.30;;;11.90;91.60;;;;;;4995255;28;20037;-93
2023/10/28 10:12:13;;;;;;;9.43;3.72;;;11.90;91.60;;;;;;4995661;28;20045;-92
2023/10/28 10:14:45;;;;;;;9.55;4.03;;;11.90;91.60;;;;;;5011688;28;20076;-95
2023/10/28 10:17:36;;;;;;;10.30;4.20;;;11.90;91.60;;;;;;4993170;28;20050;-92
2023/10/28 10:20:04;;;;;;;7.80;3.88;;;11.90;91.60;;;;;;5009493;28;20494;-93
2023/10/28 10:22:31;;;;;;;7.50;3.72;;;11.90;91.60;;;;;;5011779;28;20491;-93
2023/10/28 10:24:57;;;;;;;8.77;4.55;;;12.00;91.60;;;;;;4995524;28;20367;-94
2023/10/28 10:27:36;;;;;;;9.45;4.22;;;12.00;91.60;;;;;;5012235;28;20041;-96
2023/10/28 10:30:06;;;;;;;5.85;3.38;;;12.10;91.70;;;;;;5012695;28;20108;-95
2023/10/28 10:32:47;;;;;;;8.73;3.53;;;12.10;91.80;;;;;;5014951;28;20068;-94
2023/10/28 10:35:26;;;;;;;8.88;3.63;;;12.20;91.80;;;;;;5014556;28;20498;-94
2023/10/28 10:38:04;;;;;;;9.35;3.40;;;12.20;91.90;;;;;;5015894;28;20030;-94
2023/10/28 10:40:32;;;;;;;9.23;3.10;;;12.30;91.90;;;;;;5015753;28;20049;-95
2023/10/28 10:43:10;;;;;;;7.57;3.42;;;12.40;91.80;;;;;;4999308;28;20413;-96
2023/10/28 10:45:36;;;;;;;8.65;3.30;;;12.40;91.60;;;;;;5015618;28;20518;-93
2023/10/28 10:48:08;;;;;;;8.77;3.10;;;12.50;91.60;;;;;;5015275;28;20529;-93
2023/10/28 10:50:37;;;;;;;6.20;2.85;;;12.50;91.50;;;;;;4998610;28;20129;-92
2023/10/28 10:53:03;;;;;;;6.80;2.70;;;12.50;91.50;;;;;;5015068;28;20038;-96
2023/10/28 10:55:29;;;;;;;7.35;2.72;;;12.50;91.30;;;;;;5016227;28;20042;-93
2023/10/28 10:57:55;;;;;;;5.18;3.00;;;12.60;91.20;;;;;;5014943;28;20038;-94
2023/10/28 11:00:22;;;;;;;6.50;3.08;;;12.60;91.20;;;;;;5004425;28;20042;-93
2023/10/28 11:02:49;;;;;;;7.75;2.60;;;12.70;91.10;;;;;;5014956;28;20069;-92
2023/10/28 11:05:17;;;;;;;7.05;2.78;;;12.90;91.00;;;;;;5015063;28;20490;-92
2023/10/28 11:07:43;;;;;;;6.75;2.75;;;12.70;90.80;;;;;;4998133;28;20125;-91
2023/10/28 11:10:09;;;;;;;5.90;2.85;;;12.70;90.70;;;;;;5015929;28;20065;-89
2023/10/28 11:12:37;;;;;;;7.68;2.80;;;12.70;90.70;;;;;;5016317;28;20057;-90
2023/10/28 11:15:03;;;;;;;8.77;2.70;;;12.70;90.70;;;;;;5015168;28;20376;-91
2023/10/28 11:17:29;;;;;;;6.15;2.58;;;12.70;90.60;;;;;;5015107;28;20046;-92
2023/10/28 11:19:58;;;;;;;7.68;2.33;;;12.70;90.60;;;;;;5015674;28;20124;-91
2023/10/28 11:22:25;;;;;;;8.75;2.88;;;12.70;90.60;;;;;;5018185;28;20403;-90
2023/10/28 11:24:58;;;;;;;7.28;2.58;;;12.70;90.50;;;;;;5003899;28;20038;-91
2023/10/28 11:27:25;;;;;;;5.10;2.35;;;12.70;90.50;;;;;;5003135;28;20034;-93
2023/10/28 11:29:51;;;;;;;8.48;2.83;;;12.70;90.40;;;;;;5027289;28;20045;-94
2023/10/28 11:32:21;;;;;;;5.93;2.85;;;12.70;90.40;;;;;;5009787;28;20038;-93
2023/10/28 11:34:47;;;;;;;9.57;2.90;;;12.70;90.40;;;;;;5027451;28;20037;-93
2023/10/28 11:37:13;;;;;;;7.07;2.80;;;12.70;90.40;;;;;;4999877;28;20040;-93
2023/10/28 11:39:40;;;;;;;5.32;3.13;;;12.70;90.50;;;;;;4997869;28;20137;-93
2023/10/28 11:42:16;;;;;;;9.43;2.90;;;12.70;90.60;;;;;;4998072;28;20045;-93
2023/10/28 11:44:47;;;;;;;4.90;2.47;;;12.80;90.70;;;;;;5014146;28;20038;-94
2023/10/28 11:47:13;;;;;;;9.88;2.47;;;12.80;90.70;;;;;;4997677;28;20041;-93
2023/10/28 11:49:39;;;;;;;8.63;2.53;;;12.80;90.70;;;;;;4997920;28;20327;-94
2023/10/28 11:52:05;;;;;;;6.57;2.50;;;12.80;90.70;;;;;;5014152;28;20046;-95
2023/10/28 11:54:31;;;;;;;7.32;3.00;;;12.80;90.60;;;;;;4997533;28;20042;-94
2023/10/28 11:56:57;;;;;;;9.38;3.63;;;12.80;90.60;;;;;;5014215;28;20120;-94
2023/10/28 11:59:23;;;;;;;7.85;2.92;;;12.90;90.50;;;;;;5013754;28;20069;-94
2023/10/28 12:01:50;;;;;;;6.70;2.60;;;12.80;90.40;;;;;;4999008;28;20042;-94
2023/10/28 12:04:15;;;;;;;10.77;2.63;;;12.90;90.40;;;;;;4997624;28;20030;-94
2023/10/28 12:06:42;;;;;;;6.72;2.38;;;12.80;90.40;;;;;;4997342;28;20034;-94
2023/10/28 12:09:12;;;;;;;8.45;2.78;;;12.90;90.40;;;;;;4997168;28;20121;-93
2023/10/28 12:11:38;;;;;;;7.50;2.28;;;12.90;90.40;;;;;;5013696;28;20056;-94
2023/10/28 12:14:05;;;;;;;6.57;2.63;;;13.10;90.40;;;;;;5014474;28;20066;-96
2023/10/28 12:16:35;;;;;;;9.75;2.72;;;13.00;90.40;;;;;;5012774;28;20490;-94
2023/10/28 12:19:01;;;;;;;5.22;2.50;;;13.00;90.50;;;;;;5015587;28;20410;-95
2023/10/28 12:21:28;;;;;;;6.75;2.60;;;13.10;90.50;;;;;;5015597;28;20038;-94
2023/10/28 12:23:54;;;;;;;5.82;2.38;;;13.10;90.60;;;;;;4998473;28;20049;-95
2023/10/28 12:26:20;;;;;;;8.27;2.80;;;13.30;90.50;;;;;;4998973;28;20030;-92
2023/10/28 12:28:49;;;;;;;5.13;2.50;;;13.30;90.50;;;;;;4997753;28;20072;-94
2023/10/28 12:31:16;;;;;;;7.13;2.50;;;13.40;90.40;;;;;;4998442;28;20445;-95
2023/10/28 12:33:41;;;;;;;4.72;2.03;;;13.40;90.10;;;;;;4998524;28;20545;-95